createdAt,value
2022-11-30T00:02:57.924Z,0
2022-11-30T00:08:04.401Z,0
2022-11-30T00:13:10.884Z,0
2022-11-30T00:18:17.322Z,0
2022-11-30T00:23:23.791Z,0
2022-11-30T00:28:30.242Z,0
2022-11-30T00:33:36.706Z,0
2022-11-30T00:38:43.129Z,0
2022-11-30T00:43:49.581Z,0
2022-11-30T00:48:56.009Z,0
2022-11-30T00:54:02.460Z,0
2022-11-30T00:59:08.988Z,0
2022-11-30T01:04:15.286Z,0
2022-11-30T01:09:21.731Z,0
2022-11-30T01:14:28.208Z,0
2022-11-30T01:19:34.578Z,0
2022-11-30T01:24:41.018Z,0
2022-11-30T01:29:47.460Z,0
2022-11-30T01:34:53.814Z,0
2022-11-30T01:40:00.438Z,0
2022-11-30T01:45:06.601Z,0
2022-11-30T01:50:13.064Z,0
2022-11-30T01:55:19.524Z,0
2022-11-30T02:00:25.991Z,0
2022-11-30T02:05:32.395Z,0
2022-11-30T02:10:38.952Z,0
2022-11-30T02:15:45.257Z,0
2022-11-30T02:20:51.697Z,0
2022-11-30T02:25:58.129Z,0
2022-11-30T02:31:04.581Z,0
2022-11-30T02:36:11.009Z,0
2022-11-30T02:41:17.443Z,0
2022-11-30T02:46:23.916Z,0
2022-11-30T02:51:30.234Z,0
2022-11-30T02:56:36.674Z,0
2022-11-30T03:01:43.117Z,0
2022-11-30T03:06:49.537Z,0
2022-11-30T03:11:55.956Z,0
2022-11-30T03:17:02.420Z,0
2022-11-30T03:22:08.915Z,0
2022-11-30T03:27:15.303Z,0
2022-11-30T03:32:21.743Z,0
2022-11-30T03:37:28.138Z,0
2022-11-30T03:42:34.564Z,0
2022-11-30T03:47:41.038Z,0
2022-11-30T03:52:47.490Z,0
2022-11-30T03:57:53.981Z,0
2022-11-30T04:03:00.444Z,0
2022-11-30T04:08:06.927Z,0
2022-11-30T04:13:13.367Z,0
2022-11-30T04:18:19.859Z,0
2022-11-30T04:23:26.365Z,0
2022-11-30T04:28:32.782Z,0
2022-11-30T04:33:39.235Z,0
2022-11-30T04:38:45.719Z,0
2022-11-30T04:43:52.148Z,0
2022-11-30T04:48:58.788Z,0
2022-11-30T04:54:05.062Z,0
2022-11-30T04:59:11.528Z,0
2022-11-30T05:04:18.014Z,0
2022-11-30T05:09:24.489Z,0
2022-11-30T05:14:30.966Z,0
2022-11-30T05:19:37.379Z,0
2022-11-30T05:24:43.832Z,0
2022-11-30T05:29:50.366Z,0
2022-11-30T05:34:56.763Z,0
2022-11-30T05:40:03.222Z,0
2022-11-30T05:45:09.738Z,0
2022-11-30T05:50:16.237Z,0
2022-11-30T05:55:22.634Z,0
2022-11-30T06:00:29.126Z,0
2022-11-30T06:05:35.661Z,0
2022-11-30T06:10:42.093Z,0
2022-11-30T06:15:48.515Z,0
2022-11-30T06:20:54.939Z,0
2022-11-30T06:26:01.377Z,1
2022-11-30T06:31:07.728Z,2
2022-11-30T06:36:14.124Z,4
2022-11-30T06:41:20.613Z,1
2022-11-30T06:46:26.877Z,6
2022-11-30T06:51:33.254Z,8
2022-11-30T06:56:39.648Z,18
2022-11-30T07:01:46.109Z,14
2022-11-30T07:06:52.451Z,44
2022-11-30T07:11:58.856Z,66
2022-11-30T07:17:05.281Z,60
2022-11-30T07:22:11.777Z,98
2022-11-30T07:27:18.153Z,183
2022-11-30T07:32:24.607Z,156
2022-11-30T07:37:31.007Z,178
2022-11-30T07:42:37.510Z,177
2022-11-30T07:47:43.849Z,269
2022-11-30T07:52:50.361Z,265
2022-11-30T07:57:56.677Z,303
2022-11-30T08:03:03.088Z,316
2022-11-30T08:08:09.499Z,322
2022-11-30T08:13:15.926Z,373
2022-11-30T08:18:22.330Z,415
2022-11-30T08:23:28.772Z,447
2022-11-30T08:28:35.349Z,490
2022-11-30T08:33:41.796Z,549
2022-11-30T08:38:48.045Z,553
2022-11-30T08:43:54.446Z,526
2022-11-30T08:49:00.991Z,538
2022-11-30T08:54:07.444Z,586
2022-11-30T08:59:13.906Z,658
2022-11-30T09:04:20.286Z,632
2022-11-30T09:09:26.697Z,620
2022-11-30T09:14:33.126Z,790
2022-11-30T09:19:39.474Z,819
2022-11-30T09:24:45.962Z,841
2022-11-30T09:29:52.191Z,1039
2022-11-30T09:34:58.627Z,1214
2022-11-30T09:40:05.010Z,1561
2022-11-30T09:45:11.449Z,1873
2022-11-30T09:50:17.730Z,2000
2022-11-30T09:55:24.210Z,2179
2022-11-30T10:00:30.364Z,2102
2022-11-30T10:05:36.863Z,1866
2022-11-30T10:10:43.180Z,1489
2022-11-30T10:15:49.385Z,1403
2022-11-30T10:20:55.818Z,1466
2022-11-30T10:26:02.231Z,1550
2022-11-30T10:31:08.497Z,2496
2022-11-30T10:36:14.694Z,3708
2022-11-30T10:41:21.007Z,4519
2022-11-30T10:46:27.203Z,5266
2022-11-30T10:51:33.599Z,4830
2022-11-30T10:56:39.893Z,4240
2022-11-30T11:01:46.140Z,3628
2022-11-30T11:06:52.230Z,3262
2022-11-30T11:11:58.675Z,3014
2022-11-30T11:17:04.797Z,3002
2022-11-30T11:22:11.075Z,2962
2022-11-30T11:27:17.416Z,2945
2022-11-30T11:32:23.728Z,2714
2022-11-30T11:37:30.134Z,2374
2022-11-30T11:42:36.469Z,2635
2022-11-30T11:47:42.650Z,2621
2022-11-30T11:52:49.204Z,2697
2022-11-30T11:57:55.270Z,2843
2022-11-30T12:03:01.617Z,2857
2022-11-30T12:08:07.974Z,2308
2022-11-30T12:13:14.277Z,1643
2022-11-30T12:18:20.560Z,1930
2022-11-30T12:23:26.899Z,2380
2022-11-30T12:28:33.121Z,2112
2022-11-30T12:33:39.456Z,1968
2022-11-30T12:38:45.823Z,1909
2022-11-30T12:43:52.127Z,1964
2022-11-30T12:48:58.405Z,2033
2022-11-30T12:54:04.646Z,2055
2022-11-30T12:59:10.896Z,1997
2022-11-30T13:04:17.329Z,1991
2022-11-30T13:09:23.592Z,1980
2022-11-30T13:14:29.822Z,1949
2022-11-30T13:19:36.182Z,1397
2022-11-30T13:24:42.417Z,1486
2022-11-30T13:29:48.716Z,1524
2022-11-30T13:34:55.057Z,1494
2022-11-30T13:40:01.316Z,1292
2022-11-30T13:45:07.606Z,993
2022-11-30T13:50:13.920Z,1078
2022-11-30T13:55:20.246Z,1194
2022-11-30T14:00:26.599Z,1201
2022-11-30T14:05:32.913Z,862
2022-11-30T14:10:39.239Z,811
2022-11-30T14:15:45.701Z,834
2022-11-30T14:20:51.873Z,741
2022-11-30T14:25:58.223Z,732
2022-11-30T14:31:04.631Z,663
2022-11-30T14:36:10.955Z,606
2022-11-30T14:41:17.245Z,548
2022-11-30T14:46:23.618Z,455
2022-11-30T14:51:30.016Z,360
2022-11-30T14:56:36.416Z,278
2022-11-30T15:01:42.772Z,214
2022-11-30T15:06:49.223Z,151
2022-11-30T15:11:55.598Z,113
2022-11-30T15:17:02.026Z,74
2022-11-30T15:22:08.396Z,50
2022-11-30T15:27:14.723Z,25
2022-11-30T15:32:21.164Z,12
2022-11-30T15:37:27.615Z,6
2022-11-30T15:42:34.054Z,2
2022-11-30T15:47:40.595Z,1
2022-11-30T15:52:47.007Z,0
2022-11-30T15:57:53.523Z,0
2022-11-30T16:03:00.015Z,0
2022-11-30T16:08:06.523Z,0
2022-11-30T16:13:13.075Z,0
2022-11-30T16:18:19.668Z,0
2022-11-30T16:23:26.099Z,0
2022-11-30T16:28:32.753Z,0
2022-11-30T16:33:39.184Z,0
2022-11-30T16:38:45.681Z,0
2022-11-30T16:43:52.303Z,0
2022-11-30T16:48:58.794Z,0
2022-11-30T16:54:05.475Z,0
2022-11-30T16:59:11.898Z,0
2022-11-30T17:04:18.554Z,0
2022-11-30T17:09:25.132Z,0
2022-11-30T17:14:31.703Z,0
2022-11-30T17:19:38.280Z,0
2022-11-30T17:24:44.884Z,0
2022-11-30T17:29:51.503Z,0
2022-11-30T17:34:58.123Z,0
2022-11-30T17:40:04.761Z,0
2022-11-30T17:45:11.386Z,0
2022-11-30T17:50:18.001Z,0
2022-11-30T17:55:24.638Z,0
2022-11-30T18:00:31.160Z,0
2022-11-30T18:05:37.752Z,0
2022-11-30T18:10:44.369Z,0
2022-11-30T18:15:51.034Z,0
2022-11-30T18:20:57.566Z,0
2022-11-30T18:26:04.222Z,0
2022-11-30T18:31:10.872Z,0
2022-11-30T18:36:17.401Z,0
2022-11-30T18:41:24.052Z,0
2022-11-30T18:46:30.734Z,0
2022-11-30T18:51:37.333Z,0
2022-11-30T18:56:43.948Z,0
2022-11-30T19:01:50.577Z,0
2022-11-30T19:06:57.034Z,0
2022-11-30T19:12:03.791Z,0
2022-11-30T19:17:10.446Z,0
2022-11-30T19:22:17.027Z,0
2022-11-30T19:27:23.565Z,0
2022-11-30T19:32:30.219Z,0
2022-11-30T19:37:36.843Z,0
2022-11-30T19:42:43.547Z,0
2022-11-30T19:47:50.208Z,0
2022-11-30T19:52:56.735Z,0
2022-11-30T19:58:03.313Z,0
2022-11-30T20:03:10.076Z,0
2022-11-30T20:08:16.497Z,0
2022-11-30T20:13:23.314Z,0
2022-11-30T20:18:29.718Z,0
2022-11-30T20:23:36.335Z,0
2022-11-30T20:28:42.955Z,0
2022-11-30T20:33:49.562Z,0
2022-11-30T20:38:56.276Z,0
2022-11-30T20:44:02.802Z,0
2022-11-30T20:49:09.374Z,0
2022-11-30T20:54:16.003Z,0
2022-11-30T20:59:22.617Z,0
2022-11-30T21:04:29.173Z,0
2022-11-30T21:09:35.890Z,0
2022-11-30T21:14:42.334Z,0
2022-11-30T21:19:48.914Z,0
2022-11-30T21:24:55.556Z,0
2022-11-30T21:30:02.180Z,0
2022-11-30T21:35:08.866Z,0
2022-11-30T21:40:15.396Z,0
2022-11-30T21:45:22.030Z,0
2022-11-30T21:50:28.602Z,0
2022-11-30T21:55:35.162Z,0
2022-11-30T22:00:41.848Z,0
2022-11-30T22:05:48.512Z,0
2022-11-30T22:10:54.971Z,0
2022-11-30T22:16:01.589Z,0
2022-11-30T22:21:08.170Z,0
2022-11-30T22:26:14.761Z,0
2022-11-30T22:31:21.410Z,0
2022-11-30T22:36:28.051Z,0
2022-11-30T22:41:34.628Z,0
2022-11-30T22:46:41.253Z,0
2022-11-30T22:51:47.875Z,0
2022-11-30T22:56:54.436Z,0
2022-11-30T23:02:01.059Z,0
2022-11-30T23:07:07.641Z,0
2022-11-30T23:12:14.271Z,0
2022-11-30T23:17:20.882Z,0
2022-11-30T23:22:27.517Z,0
2022-11-30T23:27:34.123Z,0
2022-11-30T23:32:40.887Z,0
2022-11-30T23:37:47.456Z,0
2022-11-30T23:42:54.060Z,0
2022-11-30T23:48:00.652Z,0
2022-11-30T23:53:07.320Z,0
2022-11-30T23:58:13.913Z,0
